Time;durP1;ratioP1;P1;durP2;ratioP2;P2;SDS_P1;SDS_P2;PMS_P1;PMS_P2;Temp;Humidity;BMP_temperature;BMP_pressure;BME280_temperature;BME280_humidity;BME280_pressure;Samples;Min_cycle;Max_cycle;Signal;HPM_P1;HPM_P2
2021/12/22 00:04:49;;;;;;;4.60;2.13;;;12.10;50.50;;;;;;20808115;28;20029;-79
2021/12/22 00:14:50;;;;;;;4.07;2.15;;;12.10;50.50;;;;;;20814408;28;20041;-79
2021/12/22 00:24:51;;;;;;;4.00;2.25;;;12.10;50.50;;;;;;20814125;28;20132;-80
2021/12/22 00:34:53;;;;;;;4.18;1.88;;;12.20;50.60;;;;;;20813254;28;20041;-80
2021/12/22 00:44:54;;;;;;;3.03;1.98;;;12.10;50.60;;;;;;20828757;28;20411;-79
2021/12/22 00:54:55;;;;;;;3.42;2.03;;;12.00;50.50;;;;;;20795541;28;20120;-78
2021/12/22 01:04:55;;;;;;;3.22;1.90;;;12.00;50.50;;;;;;20810579;28;20069;-79
2021/12/22 01:14:56;;;;;;;3.70;1.90;;;12.00;50.50;;;;;;20793548;28;20377;-79
2021/12/22 01:25:01;;;;;;;3.08;1.67;;;12.00;50.60;;;;;;20792946;28;20044;-79
2021/12/22 01:35:02;;;;;;;3.33;1.80;;;12.00;50.50;;;;;;20793517;28;20392;-79
2021/12/22 01:55:31;;;;;;;3.22;2.05;;;12.00;50.60;;;;;;20791492;28;20098;-78
2021/12/22 02:05:31;;;;;;;4.07;1.88;;;12.00;50.60;;;;;;20778392;28;20044;-80
2021/12/22 02:15:34;;;;;;;4.95;1.80;;;12.00;50.70;;;;;;20790432;28;20029;-78
2021/12/22 02:25:42;;;;;;;3.90;1.90;;;11.90;50.70;;;;;;20808539;28;20414;-78
2021/12/22 02:35:52;;;;;;;3.30;1.60;;;11.90;50.70;;;;;;20905756;28;20037;-80
2021/12/22 02:45:53;;;;;;;1.88;1.50;;;11.90;50.70;;;;;;20890392;28;20422;-79
2021/12/22 02:56:18;;;;;;;3.13;1.23;;;11.90;50.80;;;;;;20919771;28;20037;-80
2021/12/22 03:06:26;;;;;;;2.63;1.38;;;11.90;50.80;;;;;;20891751;28;20064;-79
2021/12/22 03:16:26;;;;;;;2.95;1.48;;;11.80;50.80;;;;;;20871494;28;20483;-77
2021/12/22 03:26:28;;;;;;;3.00;1.50;;;11.80;50.90;;;;;;20901321;28;20095;-78
2021/12/22 03:36:29;;;;;;;2.05;1.52;;;11.70;51.10;;;;;;20899237;28;20037;-79
2021/12/22 03:46:30;;;;;;;2.40;1.65;;;11.50;51.30;;;;;;20900040;28;20116;-78
2021/12/22 03:56:30;;;;;;;2.92;1.73;;;11.40;51.70;;;;;;20866127;28;20395;-79
2021/12/22 04:06:31;;;;;;;3.70;1.90;;;11.30;52.00;;;;;;20865451;28;20041;-79
2021/12/22 04:16:31;;;;;;;4.07;1.88;;;11.10;52.40;;;;;;20881351;28;20033;-78
2021/12/22 04:26:32;;;;;;;2.65;1.67;;;10.90;52.70;;;;;;20896447;28;20040;-80
2021/12/22 04:36:36;;;;;;;3.00;1.60;;;10.80;53.00;;;;;;20862930;28;20040;-80
2021/12/22 04:46:37;;;;;;;2.70;1.58;;;10.70;53.30;;;;;;20787137;28;20037;-78
2021/12/22 04:56:39;;;;;;;2.83;1.73;;;10.80;53.60;;;;;;20811960;28;20044;-79
2021/12/22 05:06:39;;;;;;;2.90;1.52;;;10.60;53.60;;;;;;20779312;28;20075;-77
2021/12/22 05:16:46;;;;;;;2.78;1.65;;;10.80;53.50;;;;;;20826871;28;20472;-79
2021/12/22 05:26:46;;;;;;;3.43;1.93;;;12.00;51.40;;;;;;20796519;28;20059;-78
2021/12/22 05:36:47;;;;;;;2.10;1.48;;;13.30;48.60;;;;;;20793700;28;20116;-81
2021/12/22 05:46:47;;;;;;;3.97;1.80;;;14.30;46.40;;;;;;20769614;28;20041;-72
2021/12/22 05:56:48;;;;;;;3.13;1.85;;;15.30;44.10;;;;;;20823858;28;20088;-75
2021/12/22 06:06:48;;;;;;;2.97;1.90;;;16.10;42.30;;;;;;20790117;28;20033;-76
2021/12/22 06:16:49;;;;;;;2.60;1.63;;;16.40;41.30;;;;;;20775296;28;20427;-78
2021/12/22 06:26:50;;;;;;;3.85;2.53;;;16.40;40.90;;;;;;20825545;28;20703;-83
2021/12/22 06:36:50;;;;;;;2.78;2.47;;;16.30;40.80;;;;;;20775339;28;20473;-81
2021/12/22 06:46:51;;;;;;;5.45;2.30;;;16.20;40.70;;;;;;20806997;28;20038;-80
2021/12/22 06:56:52;;;;;;;4.30;2.20;;;15.60;41.60;;;;;;20765025;28;20030;-74
2021/12/22 07:06:53;;;;;;;3.95;2.00;;;14.60;43.00;;;;;;20823671;28;20045;-74
2021/12/22 07:16:55;;;;;;;5.00;2.47;;;13.80;44.50;;;;;;20796078;28;20415;-75
2021/12/22 07:26:55;;;;;;;4.20;2.28;;;13.20;45.80;;;;;;20820648;28;20069;-74
2021/12/22 07:37:14;;;;;;;3.85;1.88;;;12.70;46.90;;;;;;20819210;28;20040;-74
2021/12/22 07:47:15;;;;;;;3.60;1.80;;;12.40;47.80;;;;;;20800111;28;20033;-74
2021/12/22 07:57:16;;;;;;;5.10;2.45;;;12.20;48.40;;;;;;20819054;28;20454;-74
2021/12/22 08:07:18;;;;;;;5.03;2.10;;;12.10;48.60;;;;;;20816453;28;20076;-74
2021/12/22 08:17:20;;;;;;;4.63;2.42;;;12.10;48.90;;;;;;20797728;28;20508;-73
2021/12/22 08:27:25;;;;;;;3.97;1.73;;;12.00;49.00;;;;;;20830478;28;20041;-74
2021/12/22 08:47:45;;;;;;;3.95;2.30;;;12.00;49.20;;;;;;20815399;28;20041;-74
2021/12/22 08:57:45;;;;;;;4.82;2.50;;;12.00;49.40;;;;;;20776686;28;20051;-78
2021/12/22 09:07:46;;;;;;;4.53;2.58;;;11.90;49.50;;;;;;20791438;28;20041;-77
2021/12/22 09:17:47;;;;;;;3.35;2.25;;;11.90;49.70;;;;;;20831383;28;20036;-79
2021/12/22 09:27:47;;;;;;;4.32;2.50;;;11.80;49.70;;;;;;20818193;28;20128;-79
2021/12/22 09:37:48;;;;;;;4.25;1.95;;;11.80;49.70;;;;;;20822085;28;20029;-77
2021/12/22 09:48:17;;;;;;;3.70;1.95;;;11.80;49.70;;;;;;20805986;28;20037;-79
2021/12/22 09:58:18;;;;;;;5.18;2.55;;;11.80;49.80;;;;;;20796526;28;20121;-79
2021/12/22 10:08:23;;;;;;;3.95;2.30;;;11.80;49.80;;;;;;20804430;28;20518;-78
2021/12/22 10:18:28;;;;;;;4.70;2.75;;;11.80;49.80;;;;;;20802793;28;20037;-78
2021/12/22 10:28:31;;;;;;;4.28;2.50;;;11.80;49.90;;;;;;20776435;28;20049;-77
2021/12/22 10:38:32;;;;;;;5.93;3.67;;;11.80;49.80;;;;;;20804801;28;20038;-81
2021/12/22 10:59:03;;;;;;;7.45;3.10;;;11.70;49.90;;;;;;20820859;28;20403;-78
2021/12/22 11:09:13;;;;;;;5.07;2.67;;;11.70;50.10;;;;;;20819041;28;20408;-81
2021/12/22 11:19:13;;;;;;;6.85;3.58;;;12.20;49.40;;;;;;20787730;28;20033;-77
2021/12/22 11:29:14;;;;;;;6.90;3.70;;;13.20;47.30;;;;;;21135546;22;20415;-77
2021/12/22 11:39:15;;;;;;;5.83;3.23;;;14.20;45.40;;;;;;20802337;28;20128;-76
2021/12/22 11:49:20;;;;;;;6.18;3.15;;;15.00;43.70;;;;;;20741913;28;20346;-77
2021/12/22 11:59:35;;;;;;;5.07;2.53;;;15.80;42.00;;;;;;20700787;28;20062;-78
2021/12/22 12:09:46;;;;;;;5.40;2.83;;;16.20;41.00;;;;;;20717676;28;20080;-73
2021/12/22 12:30:07;;;;;;;4.03;2.58;;;14.60;43.20;;;;;;20718951;28;20064;-75
2021/12/22 12:40:08;;;;;;;7.28;3.03;;;13.80;44.60;;;;;;20697464;28;20147;-76
2021/12/22 12:50:19;;;;;;;4.53;2.50;;;13.20;45.70;;;;;;20754200;28;20073;-79
2021/12/22 13:00:22;;;;;;;5.53;2.90;;;12.80;46.80;;;;;;20774860;28;20087;-78
2021/12/22 13:10:29;;;;;;;3.83;2.28;;;12.50;47.40;;;;;;20795589;28;20030;-76
2021/12/22 13:20:32;;;;;;;8.23;3.10;;;12.40;47.80;;;;;;20780448;28;20190;-76
2021/12/22 13:30:40;;;;;;;4.40;2.15;;;12.40;48.00;;;;;;20797137;28;20119;-77
2021/12/22 13:40:42;;;;;;;4.97;2.70;;;12.40;48.20;;;;;;20794965;28;20435;-75
2021/12/22 13:50:44;;;;;;;6.40;2.78;;;12.40;48.30;;;;;;20781249;28;20546;-75
2021/12/22 14:00:44;;;;;;;5.25;2.80;;;12.40;48.40;;;;;;20777259;28;20480;-77
2021/12/22 14:10:45;;;;;;;6.97;2.97;;;12.40;48.50;;;;;;20777078;28;20041;-77
2021/12/22 14:20:45;;;;;;;5.47;2.92;;;12.30;48.50;;;;;;20753910;28;20070;-76
2021/12/22 14:30:46;;;;;;;5.65;2.97;;;12.20;48.70;;;;;;20720149;28;20059;-75
2021/12/22 14:41:07;;;;;;;6.63;3.63;;;12.10;48.90;;;;;;20795418;28;20456;-75
2021/12/22 14:51:09;;;;;;;5.47;2.70;;;12.00;49.40;;;;;;20842174;28;20284;-75
2021/12/22 15:01:11;;;;;;;5.78;2.95;;;11.80;49.90;;;;;;20824534;28;20038;-78
2021/12/22 15:11:12;;;;;;;6.20;3.08;;;11.70;49.90;;;;;;20779172;28;20029;-77
2021/12/22 15:21:13;;;;;;;5.65;3.55;;;11.60;50.20;;;;;;20755507;28;20034;-78
2021/12/22 15:31:13;;;;;;;8.27;4.00;;;11.50;50.50;;;;;;20723035;28;20034;-80
2021/12/22 15:41:14;;;;;;;10.68;4.00;;;11.40;50.80;;;;;;20722560;28;20289;-79
2021/12/22 15:51:15;;;;;;;10.65;5.07;;;12.00;49.90;;;;;;20704785;28;20068;-76
2021/12/22 16:01:17;;;;;;;14.00;5.95;;;13.20;47.50;;;;;;20703801;28;20084;-78
2021/12/22 16:11:17;;;;;;;10.70;5.32;;;14.20;45.50;;;;;;20705966;28;20045;-77
2021/12/22 16:21:18;;;;;;;11.10;5.38;;;15.10;43.20;;;;;;20704352;28;20038;-75
2021/12/22 16:31:22;;;;;;;7.53;5.05;;;15.80;41.60;;;;;;20730855;28;20184;-82
2021/12/22 16:41:24;;;;;;;10.63;4.57;;;16.20;40.60;;;;;;20726787;28;20476;-80
2021/12/22 16:51:24;;;;;;;8.15;5.28;;;16.40;40.10;;;;;;20729990;28;20092;-76
2021/12/22 17:01:26;;;;;;;7.90;4.28;;;16.40;39.80;;;;;;20712769;28;20069;-78
2021/12/22 17:11:26;;;;;;;9.63;4.93;;;16.20;39.90;;;;;;20728612;28;20450;-78
2021/12/22 17:21:27;;;;;;;7.53;4.60;;;15.30;41.30;;;;;;20712920;28;20040;-78
2021/12/22 17:31:28;;;;;;;6.90;3.80;;;14.40;42.80;;;;;;20698679;28;20049;-78
2021/12/22 17:41:28;;;;;;;7.95;4.55;;;13.60;44.20;;;;;;20712402;28;20064;-78
2021/12/22 17:51:29;;;;;;;8.88;4.30;;;13.00;45.40;;;;;;20712492;28;20050;-78
2021/12/22 18:01:30;;;;;;;9.82;4.65;;;12.70;46.20;;;;;;20731622;28;20074;-81
2021/12/22 18:11:32;;;;;;;8.77;4.55;;;12.50;46.80;;;;;;20712415;28;20505;-80
2021/12/22 18:21:32;;;;;;;7.80;4.15;;;12.50;47.00;;;;;;20707595;28;20414;-80
2021/12/22 18:31:34;;;;;;;7.53;4.05;;;12.50;47.10;;;;;;20704354;28;20046;-80
2021/12/22 18:41:35;;;;;;;8.88;4.53;;;12.50;47.20;;;;;;20707856;28;20072;-79
2021/12/22 18:51:35;;;;;;;7.72;4.22;;;12.50;47.20;;;;;;20697103;28;20046;-76
2021/12/22 19:01:36;;;;;;;7.18;4.13;;;12.50;47.20;;;;;;20726636;28;20030;-81
2021/12/22 19:11:37;;;;;;;9.57;3.90;;;12.50;47.10;;;;;;20719179;28;20048;-82
2021/12/22 19:21:37;;;;;;;6.88;3.90;;;12.50;47.10;;;;;;20748734;28;20032;-81
2021/12/22 19:31:38;;;;;;;8.25;4.57;;;12.50;47.10;;;;;;20805360;28;20064;-80
2021/12/22 19:41:38;;;;;;;7.93;4.72;;;12.50;47.10;;;;;;20774087;28;20112;-82
2021/12/22 19:51:40;;;;;;;7.47;4.43;;;12.60;47.20;;;;;;20736324;28;20057;-78
2021/12/22 20:01:42;;;;;;;6.10;4.00;;;12.50;47.10;;;;;;20727278;28;20030;-78
2021/12/22 20:11:44;;;;;;;7.55;3.92;;;12.40;47.10;;;;;;20671801;28;20335;-77
2021/12/22 20:21:45;;;;;;;8.10;4.05;;;12.40;47.00;;;;;;20716497;28;20053;-76
2021/12/22 20:31:45;;;;;;;7.88;4.20;;;12.40;47.10;;;;;;20741752;28;20088;-77
2021/12/22 20:41:46;;;;;;;8.15;5.07;;;12.40;47.10;;;;;;20645064;28;20117;-78
2021/12/22 20:51:46;;;;;;;5.93;3.50;;;12.40;47.10;;;;;;20650877;28;20044;-77
2021/12/22 21:01:47;;;;;;;6.30;4.05;;;12.30;47.10;;;;;;20650356;28;20026;-77
2021/12/22 21:11:49;;;;;;;6.45;3.40;;;12.30;47.10;;;;;;20664922;28;20053;-77
2021/12/22 21:21:49;;;;;;;6.63;3.97;;;12.30;47.10;;;;;;20632152;28;20030;-77
2021/12/22 21:31:53;;;;;;;6.88;3.95;;;12.30;47.10;;;;;;20674540;28;20064;-78
2021/12/22 21:41:54;;;;;;;7.97;3.78;;;12.30;47.10;;;;;;20709694;28;20026;-78
2021/12/22 21:51:56;;;;;;;7.78;3.05;;;12.30;47.10;;;;;;20699934;28;20041;-77
2021/12/22 22:01:57;;;;;;;6.82;3.65;;;12.20;47.00;;;;;;20686465;28;20066;-77
2021/12/22 22:11:58;;;;;;;10.05;4.15;;;12.20;47.00;;;;;;20732870;28;20046;-77
2021/12/22 22:21:59;;;;;;;7.03;3.63;;;12.20;47.00;;;;;;20684207;28;20559;-76
2021/12/22 22:32:01;;;;;;;5.80;3.47;;;12.20;47.00;;;;;;20723161;28;20038;-76
2021/12/22 22:42:04;;;;;;;7.03;3.80;;;12.20;47.00;;;;;;20733797;28;20030;-77
2021/12/22 22:52:05;;;;;;;6.30;3.45;;;12.10;47.00;;;;;;20722637;28;20040;-77
2021/12/22 23:02:05;;;;;;;6.00;3.38;;;12.10;47.70;;;;;;20707802;28;20037;-76
2021/12/22 23:12:06;;;;;;;7.07;4.30;;;12.10;47.00;;;;;;20721740;28;20443;-77
2021/12/22 23:22:07;;;;;;;6.85;3.97;;;12.10;47.00;;;;;;20742761;28;20034;-77
2021/12/22 23:32:08;;;;;;;8.77;4.68;;;12.10;47.10;;;;;;20721238;28;20042;-77
2021/12/22 23:42:25;;;;;;;7.93;3.60;;;12.10;47.00;;;;;;20704781;28;20038;-75
2021/12/22 23:52:26;;;;;;;6.25;3.45;;;12.00;47.00;;;;;;20708960;28;20038;-75
